Louisiana — WLOZ — position and weather

sailwx.info

Track history (hours):
 
Tides and Currents Weather Stations Pressure Air Temp Water Temp Dewpoint Dewpoint Depression Visibility Wind Speed Wind Dir Waves Ship Positions

Louisiana

Owner: Crowley Petroleum Services, Inc., Jacksonville, FL. More information available from US FCC via Universal Licensing System and Coast Guard Vessel Documentation Center.

Last reported at 2018-May-15 12:50 UTC. Time now 2018-May-21 09:15 UTC.
Position N 27°41' W 082°34'.

Length 183 m; draft 8.4 m.

Type: Tanker. MMSI: 338110000.

Date/timePositionNaut miles runAvg speedWind from/ knotsBaromVisibWave heightAir tempDewpointWater temp
2018-May-15 12:50N 27°41' W 082°34'412.8
2018-May-15 12:30N 27°45' W 082°32'611.6
2018-May-15 12:00N 27°49' W 082°27'611.5
2018-May-15 11:30N 27°55' W 082°26'2 3.9
2018-May-15 11:01N 27°56' W 082°27'0 0.6
2018-May-15 10:28N 27°57' W 082°27'0 0.0
2018-May-15 09:58N 27°57' W 082°27'0 0.0
2018-May-15 09:28N 27°57' W 082°27'0 0.0
2018-May-15 09:00N 27°57' W 082°27'0 0.0
2018-May-15 08:31N 27°57' W 082°27'0 0.0
2018-May-15 08:01N 27°57' W 082°27'0 0.0
2018-May-15 07:28N 27°57' W 082°27'0 0.0
2018-May-15 07:00N 27°57' W 082°27'0 0.0
2018-May-15 06:31N 27°57' W 082°27'0 0.0
2018-May-15 06:01N 27°57' W 082°27'0 0.0
2018-May-15 05:25N 27°57' W 082°27'0 0.0
2018-May-15 04:57N 27°57' W 082°27'0 0.0
2018-May-15 04:31N 27°57' W 082°27'0 0.0
2018-May-15 04:00N 27°57' W 082°27'0 0.0
2018-May-15 03:30N 27°57' W 082°27'0 0.0
2018-May-15 03:00N 27°57' W 082°27'0 0.0
2018-May-15 02:27N 27°57' W 082°27'0 0.0
2018-May-15 02:00N 27°57' W 082°27'0 0.0
2018-May-15 01:30N 27°57' W 082°27'0 0.0
2018-May-15 01:00N 27°57' W 082°27'0 0.0
2018-May-15 00:30N 27°57' W 082°27'0 0.0
2018-May-15 00:00N 27°57' W 082°27'0 0.0
2018-May-14 23:30N 27°57' W 082°27'0 0.0
2018-May-14 23:00N 27°57' W 082°27'0 0.0
2018-May-14 22:30N 27°57' W 082°27'0 0.0
2018-May-14 22:00N 27°57' W 082°27'0 0.0
2018-May-14 21:30N 27°57' W 082°27'0 0.0
2018-May-14 21:00N 27°57' W 082°27'0 0.0
2018-May-14 20:30N 27°57' W 082°27'0 0.0
2018-May-14 20:00N 27°57' W 082°27'0 0.0
2018-May-14 19:30N 27°57' W 082°27'0 0.0
2018-May-14 19:00N 27°57' W 082°27'0 0.0
2018-May-14 18:30N 27°57' W 082°27'0 0.0
2018-May-14 18:00N 27°57' W 082°27'0 0.0
2018-May-14 17:30N 27°57' W 082°27'0 0.0
2018-May-14 16:57N 27°57' W 082°27'0 0.0
2018-May-14 16:30N 27°57' W 082°27'0 0.0
2018-May-14 16:01N 27°57' W 082°27'0 0.0
2018-May-14 15:30N 27°57' W 082°27'0 0.0
2018-May-14 15:00N 27°57' W 082°27'0 0.0
2018-May-14 14:30N 27°57' W 082°27'0 0.0
2018-May-14 13:57N 27°57' W 082°27'0 0.0
2018-May-14 13:27N 27°57' W 082°27'0 0.0
2018-May-14 13:00N 27°57' W 082°27'0 0.0
2018-May-14 12:30N 27°57' W 082°27'0 0.0
2018-May-14 11:54N 27°57' W 082°27'0 0.0
2018-May-14 11:27N 27°57' W 082°27'0 0.0
2018-May-14 11:00N 27°57' W 082°27'0 0.0
2018-May-14 10:27N 27°57' W 082°27'0 0.0
2018-May-14 10:00N 27°57' W 082°27'0 0.0
2018-May-14 09:30N 27°57' W 082°27'0 0.0
2018-May-14 09:00N 27°57' W 082°27'0 0.0
2018-May-14 08:30N 27°57' W 082°27'0 0.0
2018-May-14 08:00N 27°57' W 082°27'0 0.0
2018-May-14 07:30N 27°57' W 082°27'0 0.0
2018-May-14 07:00N 27°57' W 082°27'0 0.0
2018-May-14 06:30N 27°57' W 082°27'0 0.0
2018-May-14 06:00N 27°57' W 082°27'0 0.0
2018-May-14 05:30N 27°57' W 082°27'0 0.0
2018-May-14 05:00N 27°57' W 082°27'0 0.0
2018-May-14 04:30N 27°57' W 082°27'0 0.8
2018-May-14 04:01N 27°56' W 082°27'2 4.1
2018-May-14 03:31N 27°54' W 082°26'5 9.6
2018-May-14 03:00N 27°49' W 082°27'611.3
2018-May-14 02:30N 27°46' W 082°31'612.2
2018-May-14 02:00N 27°41' W 082°35'612.4
2018-May-14 01:30N 27°37' W 082°41'18 0.5
2018-May-12 14:41N 27°37' W 083°01'1 6.2
2018-May-12 14:31N 27°37' W 083°02'610.5
2018-May-12 13:59N 27°36' W 083°09'511.6
2018-May-12 13:30N 27°36' W 083°15'611.6
2018-May-12 13:00N 27°36' W 083°21'611.6
2018-May-12 12:30N 27°36' W 083°28'711.7
2018-May-12 11:54N 27°36' W 083°36'511.9
2018-May-12 11:30N 27°36' W 083°41'  
2018-May-09 12:09N 30°03' W 090°36'0 0.1
2018-May-09 12:00N 30°03' W 090°36'1 1.6
2018-May-09 11:30N 30°03' W 090°35'3 6.6
2018-May-09 11:00N 30°03' W 090°31'4 6.7
2018-May-09 10:28N 30°00' W 090°28'10 7.0
2018-May-09 09:01N 29°58' W 090°17'144 8.5
2018-May-08 16:09N 28°06' W 088°34'314.1
2018-May-08 15:54N 28°04' W 088°31'4514.2
2018-May-08 12:43N 27°36' W 087°51'314.0
2018-May-08 12:30N 27°34' W 087°48'43710.7
2018-May-06 19:47N 25°29' W 080°00'311.1
2018-May-06 19:30N 25°33' W 080°00'611.1
2018-May-06 19:00N 25°38' W 080°02'511.0
2018-May-06 18:30N 25°43' W 080°02'611.1
2018-May-06 18:00N 25°49' W 080°03'611.2
2018-May-06 17:30N 25°55' W 080°03'611.6
2018-May-06 17:00N 26°00' W 080°03'510.1
2018-May-06 16:30N 26°05' W 080°05'2 4.3
2018-May-06 16:00N 26°06' W 080°07'0 0.0
2018-May-06 15:30N 26°06' W 080°07'0 0.0
2018-May-06 15:00N 26°06' W 080°07'0 0.0
2018-May-06 14:31N 26°06' W 080°07'0 0.0
2018-May-06 14:00N 26°06' W 080°07'0 0.0
2018-May-06 13:30N 26°06' W 080°07'0 0.0
2018-May-06 13:00N 26°06' W 080°07'0 0.0
2018-May-06 12:28N 26°06' W 080°07'0 0.0
2018-May-06 11:57N 26°06' W 080°07'0 0.0
2018-May-06 11:30N 26°06' W 080°07'0 0.0
2018-May-06 11:00N 26°06' W 080°07'0 0.0
2018-May-06 10:30N 26°06' W 080°07'0 0.0
2018-May-06 10:00N 26°06' W 080°07'0 0.0
2018-May-06 09:30N 26°06' W 080°07'0 0.0
2018-May-06 09:00N 26°06' W 080°07'0 0.0
2018-May-06 08:30N 26°06' W 080°07'0 0.0
2018-May-06 08:00N 26°06' W 080°07'0 0.0
2018-May-06 07:30N 26°06' W 080°07'0 0.0
2018-May-06 07:01N 26°06' W 080°07'0 0.0
2018-May-06 06:30N 26°06' W 080°07'0 0.0
2018-May-06 06:00N 26°06' W 080°07'0 0.0
2018-May-06 05:30N 26°06' W 080°07'0 0.0
2018-May-06 05:00N 26°06' W 080°07'0 0.0
2018-May-06 04:30N 26°06' W 080°07'0 0.0
2018-May-06 04:00N 26°06' W 080°07'0 0.0
2018-May-06 03:30N 26°06' W 080°07'0 0.0
2018-May-06 03:00N 26°06' W 080°07'0 0.0
2018-May-06 02:27N 26°06' W 080°07'0 0.0
2018-May-06 02:00N 26°06' W 080°07'0 0.0
2018-May-06 01:31N 26°06' W 080°07'0 0.0
2018-May-06 01:00N 26°06' W 080°07'0 0.0
2018-May-06 00:30N 26°06' W 080°07'0 0.0
2018-May-06 00:00N 26°06' W 080°07'0 0.0
2018-May-05 23:30N 26°06' W 080°07'0 0.0
2018-May-05 23:00N 26°06' W 080°07'0 0.0
2018-May-05 22:30N 26°06' W 080°07'0 0.0
2018-May-05 22:00N 26°06' W 080°07'0 0.0
2018-May-05 21:30N 26°06' W 080°07'0 0.0
2018-May-05 21:00N 26°06' W 080°07'0 0.0
2018-May-05 20:30N 26°06' W 080°07'0 0.0
2018-May-05 19:57N 26°06' W 080°07'0 0.0
2018-May-05 19:30N 26°06' W 080°07'0 0.0
2018-May-05 19:00N 26°06' W 080°07'0 0.0
2018-May-05 18:30N 26°06' W 080°07'0 0.0
2018-May-05 18:00N 26°06' W 080°07'0 0.0
2018-May-05 17:30N 26°06' W 080°07'0 0.0
2018-May-05 17:00N 26°06' W 080°07'0 0.0
2018-May-05 16:27N 26°06' W 080°07'0 0.0
2018-May-05 16:00N 26°06' W 080°07'0 0.0
2018-May-05 15:30N 26°06' W 080°07'0 0.0
2018-May-05 15:00N 26°06' W 080°07'0 0.0
2018-May-05 14:30N 26°06' W 080°07'0 0.0
2018-May-05 14:00N 26°06' W 080°07'0 0.0
2018-May-05 13:30N 26°06' W 080°07'0 0.0
2018-May-05 13:00N 26°06' W 080°07'  
Track history (hours):
 
Tides and Currents Weather Stations Pressure Air Temp Water Temp Dewpoint Dewpoint Depression Visibility Wind Speed Wind Dir Waves Ship Positions

Louisiana

Owner: Crowley Petroleum Services, Inc., Jacksonville, FL. More information available from US FCC via Universal Licensing System and Coast Guard Vessel Documentation Center.

Last reported at 2018-May-15 12:50 UTC. Time now 2018-May-21 09:15 UTC.
Position N 27°41' W 082°34'.

Length 183 m; draft 8.4 m.

Type: Tanker. MMSI: 338110000.

Date/timePositionNaut miles runAvg speedWind from/ knotsBaromVisibWave heightAir tempDewpointWater temp
2018-May-15 12:50N 27°41' W 082°34'412.8
2018-May-15 12:30N 27°45' W 082°32'611.6
2018-May-15 12:00N 27°49' W 082°27'611.5
2018-May-15 11:30N 27°55' W 082°26'2 3.9
2018-May-15 11:01N 27°56' W 082°27'0 0.6
2018-May-15 10:28N 27°57' W 082°27'0 0.0
2018-May-15 09:58N 27°57' W 082°27'0 0.0
2018-May-15 09:28N 27°57' W 082°27'0 0.0
2018-May-15 09:00N 27°57' W 082°27'0 0.0
2018-May-15 08:31N 27°57' W 082°27'0 0.0
2018-May-15 08:01N 27°57' W 082°27'0 0.0
2018-May-15 07:28N 27°57' W 082°27'0 0.0
2018-May-15 07:00N 27°57' W 082°27'0 0.0
2018-May-15 06:31N 27°57' W 082°27'0 0.0
2018-May-15 06:01N 27°57' W 082°27'0 0.0
2018-May-15 05:25N 27°57' W 082°27'0 0.0
2018-May-15 04:57N 27°57' W 082°27'0 0.0
2018-May-15 04:31N 27°57' W 082°27'0 0.0
2018-May-15 04:00N 27°57' W 082°27'0 0.0
2018-May-15 03:30N 27°57' W 082°27'0 0.0
2018-May-15 03:00N 27°57' W 082°27'0 0.0
2018-May-15 02:27N 27°57' W 082°27'0 0.0
2018-May-15 02:00N 27°57' W 082°27'0 0.0
2018-May-15 01:30N 27°57' W 082°27'0 0.0
2018-May-15 01:00N 27°57' W 082°27'0 0.0
2018-May-15 00:30N 27°57' W 082°27'0 0.0
2018-May-15 00:00N 27°57' W 082°27'0 0.0
2018-May-14 23:30N 27°57' W 082°27'0 0.0
2018-May-14 23:00N 27°57' W 082°27'0 0.0
2018-May-14 22:30N 27°57' W 082°27'0 0.0
2018-May-14 22:00N 27°57' W 082°27'0 0.0
2018-May-14 21:30N 27°57' W 082°27'0 0.0
2018-May-14 21:00N 27°57' W 082°27'0 0.0
2018-May-14 20:30N 27°57' W 082°27'0 0.0
2018-May-14 20:00N 27°57' W 082°27'0 0.0
2018-May-14 19:30N 27°57' W 082°27'0 0.0
2018-May-14 19:00N 27°57' W 082°27'0 0.0
2018-May-14 18:30N 27°57' W 082°27'0 0.0
2018-May-14 18:00N 27°57' W 082°27'0 0.0
2018-May-14 17:30N 27°57' W 082°27'0 0.0
2018-May-14 16:57N 27°57' W 082°27'0 0.0
2018-May-14 16:30N 27°57' W 082°27'0 0.0
2018-May-14 16:01N 27°57' W 082°27'0 0.0
2018-May-14 15:30N 27°57' W 082°27'0 0.0
2018-May-14 15:00N 27°57' W 082°27'0 0.0
2018-May-14 14:30N 27°57' W 082°27'0 0.0
2018-May-14 13:57N 27°57' W 082°27'0 0.0
2018-May-14 13:27N 27°57' W 082°27'0 0.0
2018-May-14 13:00N 27°57' W 082°27'0 0.0
2018-May-14 12:30N 27°57' W 082°27'0 0.0
2018-May-14 11:54N 27°57' W 082°27'0 0.0
2018-May-14 11:27N 27°57' W 082°27'0 0.0
2018-May-14 11:00N 27°57' W 082°27'0 0.0
2018-May-14 10:27N 27°57' W 082°27'0 0.0
2018-May-14 10:00N 27°57' W 082°27'0 0.0
2018-May-14 09:30N 27°57' W 082°27'0 0.0
2018-May-14 09:00N 27°57' W 082°27'0 0.0
2018-May-14 08:30N 27°57' W 082°27'0 0.0
2018-May-14 08:00N 27°57' W 082°27'0 0.0
2018-May-14 07:30N 27°57' W 082°27'0 0.0
2018-May-14 07:00N 27°57' W 082°27'0 0.0
2018-May-14 06:30N 27°57' W 082°27'0 0.0
2018-May-14 06:00N 27°57' W 082°27'0 0.0
2018-May-14 05:30N 27°57' W 082°27'0 0.0
2018-May-14 05:00N 27°57' W 082°27'0 0.0
2018-May-14 04:30N 27°57' W 082°27'0 0.8
2018-May-14 04:01N 27°56' W 082°27'2 4.1
2018-May-14 03:31N 27°54' W 082°26'5 9.6
2018-May-14 03:00N 27°49' W 082°27'611.3
2018-May-14 02:30N 27°46' W 082°31'612.2
2018-May-14 02:00N 27°41' W 082°35'612.4
2018-May-14 01:30N 27°37' W 082°41'18 0.5
2018-May-12 14:41N 27°37' W 083°01'1 6.2
2018-May-12 14:31N 27°37' W 083°02'610.5
2018-May-12 13:59N 27°36' W 083°09'511.6
2018-May-12 13:30N 27°36' W 083°15'611.6
2018-May-12 13:00N 27°36' W 083°21'611.6
2018-May-12 12:30N 27°36' W 083°28'711.7
2018-May-12 11:54N 27°36' W 083°36'511.9
2018-May-12 11:30N 27°36' W 083°41'  
2018-May-09 12:09N 30°03' W 090°36'0 0.1
2018-May-09 12:00N 30°03' W 090°36'1 1.6
2018-May-09 11:30N 30°03' W 090°35'3 6.6
2018-May-09 11:00N 30°03' W 090°31'4 6.7
2018-May-09 10:28N 30°00' W 090°28'10 7.0
2018-May-09 09:01N 29°58' W 090°17'144 8.5
2018-May-08 16:09N 28°06' W 088°34'314.1
2018-May-08 15:54N 28°04' W 088°31'4514.2
2018-May-08 12:43N 27°36' W 087°51'314.0
2018-May-08 12:30N 27°34' W 087°48'43710.7
2018-May-06 19:47N 25°29' W 080°00'311.1
2018-May-06 19:30N 25°33' W 080°00'611.1
2018-May-06 19:00N 25°38' W 080°02'511.0
2018-May-06 18:30N 25°43' W 080°02'611.1
2018-May-06 18:00N 25°49' W 080°03'611.2
2018-May-06 17:30N 25°55' W 080°03'611.6
2018-May-06 17:00N 26°00' W 080°03'510.1
2018-May-06 16:30N 26°05' W 080°05'2 4.3
2018-May-06 16:00N 26°06' W 080°07'0 0.0
2018-May-06 15:30N 26°06' W 080°07'0 0.0
2018-May-06 15:00N 26°06' W 080°07'0 0.0
2018-May-06 14:31N 26°06' W 080°07'0 0.0
2018-May-06 14:00N 26°06' W 080°07'0 0.0
2018-May-06 13:30N 26°06' W 080°07'0 0.0
2018-May-06 13:00N 26°06' W 080°07'0 0.0
2018-May-06 12:28N 26°06' W 080°07'0 0.0
2018-May-06 11:57N 26°06' W 080°07'0 0.0
2018-May-06 11:30N 26°06' W 080°07'0 0.0
2018-May-06 11:00N 26°06' W 080°07'0 0.0
2018-May-06 10:30N 26°06' W 080°07'0 0.0
2018-May-06 10:00N 26°06' W 080°07'0 0.0
2018-May-06 09:30N 26°06' W 080°07'0 0.0
2018-May-06 09:00N 26°06' W 080°07'0 0.0
2018-May-06 08:30N 26°06' W 080°07'0 0.0
2018-May-06 08:00N 26°06' W 080°07'0 0.0
2018-May-06 07:30N 26°06' W 080°07'0 0.0
2018-May-06 07:01N 26°06' W 080°07'0 0.0
2018-May-06 06:30N 26°06' W 080°07'0 0.0
2018-May-06 06:00N 26°06' W 080°07'0 0.0
2018-May-06 05:30N 26°06' W 080°07'0 0.0
2018-May-06 05:00N 26°06' W 080°07'0 0.0
2018-May-06 04:30N 26°06' W 080°07'0 0.0
2018-May-06 04:00N 26°06' W 080°07'0 0.0
2018-May-06 03:30N 26°06' W 080°07'0 0.0
2018-May-06 03:00N 26°06' W 080°07'0 0.0
2018-May-06 02:27N 26°06' W 080°07'0 0.0
2018-May-06 02:00N 26°06' W 080°07'0 0.0
2018-May-06 01:31N 26°06' W 080°07'0 0.0
2018-May-06 01:00N 26°06' W 080°07'0 0.0
2018-May-06 00:30N 26°06' W 080°07'0 0.0
2018-May-06 00:00N 26°06' W 080°07'0 0.0
2018-May-05 23:30N 26°06' W 080°07'0 0.0
2018-May-05 23:00N 26°06' W 080°07'0 0.0
2018-May-05 22:30N 26°06' W 080°07'0 0.0
2018-May-05 22:00N 26°06' W 080°07'0 0.0
2018-May-05 21:30N 26°06' W 080°07'0 0.0
2018-May-05 21:00N 26°06' W 080°07'0 0.0
2018-May-05 20:30N 26°06' W 080°07'0 0.0
2018-May-05 19:57N 26°06' W 080°07'0 0.0
2018-May-05 19:30N 26°06' W 080°07'0 0.0
2018-May-05 19:00N 26°06' W 080°07'0 0.0
2018-May-05 18:30N 26°06' W 080°07'0 0.0
2018-May-05 18:00N 26°06' W 080°07'0 0.0
2018-May-05 17:30N 26°06' W 080°07'0 0.0
2018-May-05 17:00N 26°06' W 080°07'0 0.0
2018-May-05 16:27N 26°06' W 080°07'0 0.0
2018-May-05 16:00N 26°06' W 080°07'0 0.0
2018-May-05 15:30N 26°06' W 080°07'0 0.0
2018-May-05 15:00N 26°06' W 080°07'0 0.0
2018-May-05 14:30N 26°06' W 080°07'0 0.0
2018-May-05 14:00N 26°06' W 080°07'0 0.0
2018-May-05 13:30N 26°06' W 080°07'0 0.0
2018-May-05 13:00N 26°06' W 080°07'  

Dump ship's entire track history